sensor_id;sensor_type;location;lat;lon;timestamp;temperature;humidity
20915;DHT22;10617;52.032;5.298;2023-04-03T00:02:02;6.00;99.90
20915;DHT22;10617;52.032;5.298;2023-04-03T00:06:04;5.90;99.90
20915;DHT22;10617;52.032;5.298;2023-04-03T00:10:08;5.90;99.90
20915;DHT22;10617;52.032;5.298;2023-04-03T00:14:10;5.80;99.90
20915;DHT22;10617;52.032;5.298;2023-04-03T00:18:11;5.70;99.90
20915;DHT22;10617;52.032;5.298;2023-04-03T00:22:13;5.70;99.90
20915;DHT22;10617;52.032;5.298;2023-04-03T00:26:14;5.60;99.90
20915;DHT22;10617;52.032;5.298;2023-04-03T00:30:17;5.60;99.90
20915;DHT22;10617;52.032;5.298;2023-04-03T00:34:19;5.60;99.90
20915;DHT22;10617;52.032;5.298;2023-04-03T00:38:21;5.50;99.90
20915;DHT22;10617;52.032;5.298;2023-04-03T00:42:23;5.40;99.90
20915;DHT22;10617;52.032;5.298;2023-04-03T00:46:24;5.30;99.90
20915;DHT22;10617;52.032;5.298;2023-04-03T00:50:27;5.30;99.90
20915;DHT22;10617;52.032;5.298;2023-04-03T00:54:29;5.20;99.90
20915;DHT22;10617;52.032;5.298;2023-04-03T00:58:33;5.20;99.90
20915;DHT22;10617;52.032;5.298;2023-04-03T01:02:35;5.20;99.90
20915;DHT22;10617;52.032;5.298;2023-04-03T01:06:37;5.10;99.90
20915;DHT22;10617;52.032;5.298;2023-04-03T01:10:39;5.00;99.90
20915;DHT22;10617;52.032;5.298;2023-04-03T01:14:41;4.90;99.90
20915;DHT22;10617;52.032;5.298;2023-04-03T01:18:44;4.90;99.90
20915;DHT22;10617;52.032;5.298;2023-04-03T01:22:59;4.80;99.90
20915;DHT22;10617;52.032;5.298;2023-04-03T01:27:07;4.80;99.90
20915;DHT22;10617;52.032;5.298;2023-04-03T01:31:13;4.70;99.90
20915;DHT22;10617;52.032;5.298;2023-04-03T01:35:16;4.70;99.90
20915;DHT22;10617;52.032;5.298;2023-04-03T01:39:18;4.70;99.90
20915;DHT22;10617;52.032;5.298;2023-04-03T01:43:20;4.60;99.90
20915;DHT22;10617;52.032;5.298;2023-04-03T01:47:21;4.50;99.90
20915;DHT22;10617;52.032;5.298;2023-04-03T01:51:23;4.50;99.90
20915;DHT22;10617;52.032;5.298;2023-04-03T01:55:25;4.50;99.90
20915;DHT22;10617;52.032;5.298;2023-04-03T01:59:27;4.50;99.90
20915;DHT22;10617;52.032;5.298;2023-04-03T02:03:29;4.40;99.90
20915;DHT22;10617;52.032;5.298;2023-04-03T02:07:31;4.40;99.90
20915;DHT22;10617;52.032;5.298;2023-04-03T02:11:32;4.30;99.90
20915;DHT22;10617;52.032;5.298;2023-04-03T02:15:34;4.30;99.90
20915;DHT22;10617;52.032;5.298;2023-04-03T02:29:22;4.10;99.90
20915;DHT22;10617;52.032;5.298;2023-04-03T02:48:35;3.90;99.90
20915;DHT22;10617;52.032;5.298;2023-04-03T02:52:36;3.80;99.90
20915;DHT22;10617;52.032;5.298;2023-04-03T02:56:38;3.80;99.90
20915;DHT22;10617;52.032;5.298;2023-04-03T03:00:40;3.80;99.90
20915;DHT22;10617;52.032;5.298;2023-04-03T03:04:41;3.70;99.90
20915;DHT22;10617;52.032;5.298;2023-04-03T03:08:44;3.70;99.90
20915;DHT22;10617;52.032;5.298;2023-04-03T03:12:46;3.60;99.90
20915;DHT22;10617;52.032;5.298;2023-04-03T03:16:47;3.60;99.90
20915;DHT22;10617;52.032;5.298;2023-04-03T03:20:52;3.60;99.90
20915;DHT22;10617;52.032;5.298;2023-04-03T03:24:54;3.50;99.90
20915;DHT22;10617;52.032;5.298;2023-04-03T03:28:56;3.50;99.90
20915;DHT22;10617;52.032;5.298;2023-04-03T03:32:57;3.50;99.90
20915;DHT22;10617;52.032;5.298;2023-04-03T03:36:59;3.40;99.90
20915;DHT22;10617;52.032;5.298;2023-04-03T03:41:01;3.40;99.90
20915;DHT22;10617;52.032;5.298;2023-04-03T03:45:03;3.40;99.90
20915;DHT22;10617;52.032;5.298;2023-04-03T03:49:04;3.40;99.90
20915;DHT22;10617;52.032;5.298;2023-04-03T03:53:06;3.40;99.90
20915;DHT22;10617;52.032;5.298;2023-04-03T03:57:08;3.40;99.90
20915;DHT22;10617;52.032;5.298;2023-04-03T04:01:09;3.30;99.90
20915;DHT22;10617;52.032;5.298;2023-04-03T04:05:11;3.20;99.90
20915;DHT22;10617;52.032;5.298;2023-04-03T04:09:12;3.20;99.90
20915;DHT22;10617;52.032;5.298;2023-04-03T04:13:14;3.20;99.90
20915;DHT22;10617;52.032;5.298;2023-04-03T04:17:16;3.10;99.90
20915;DHT22;10617;52.032;5.298;2023-04-03T04:21:17;3.10;99.90
20915;DHT22;10617;52.032;5.298;2023-04-03T04:25:19;3.00;99.90
20915;DHT22;10617;52.032;5.298;2023-04-03T04:29:21;3.00;99.90
20915;DHT22;10617;52.032;5.298;2023-04-03T04:33:23;3.00;99.90
20915;DHT22;10617;52.032;5.298;2023-04-03T04:37:24;2.90;99.90
20915;DHT22;10617;52.032;5.298;2023-04-03T04:41:26;2.80;99.90
20915;DHT22;10617;52.032;5.298;2023-04-03T04:45:28;2.80;99.90
20915;DHT22;10617;52.032;5.298;2023-04-03T04:49:29;2.80;99.90
20915;DHT22;10617;52.032;5.298;2023-04-03T04:53:31;2.70;99.90
20915;DHT22;10617;52.032;5.298;2023-04-03T04:57:33;2.70;99.90
20915;DHT22;10617;52.032;5.298;2023-04-03T05:01:35;2.70;99.90
20915;DHT22;10617;52.032;5.298;2023-04-03T05:05:37;2.70;99.90
20915;DHT22;10617;52.032;5.298;2023-04-03T05:09:39;2.60;99.90
20915;DHT22;10617;52.032;5.298;2023-04-03T05:13:43;2.50;99.90
20915;DHT22;10617;52.032;5.298;2023-04-03T05:17:45;2.50;99.90
20915;DHT22;10617;52.032;5.298;2023-04-03T05:21:47;2.50;99.90
20915;DHT22;10617;52.032;5.298;2023-04-03T05:25:48;2.40;99.90
20915;DHT22;10617;52.032;5.298;2023-04-03T05:29:52;2.40;99.90
20915;DHT22;10617;52.032;5.298;2023-04-03T05:33:53;2.40;99.90
20915;DHT22;10617;52.032;5.298;2023-04-03T05:37:55;2.40;99.90
20915;DHT22;10617;52.032;5.298;2023-04-03T05:41:57;2.40;99.90
20915;DHT22;10617;52.032;5.298;2023-04-03T05:45:58;2.50;99.90
20915;DHT22;10617;52.032;5.298;2023-04-03T05:50:00;2.50;99.90
20915;DHT22;10617;52.032;5.298;2023-04-03T05:54:18;2.60;99.90
20915;DHT22;10617;52.032;5.298;2023-04-03T05:58:20;2.70;99.90
20915;DHT22;10617;52.032;5.298;2023-04-03T06:02:23;2.80;99.90
20915;DHT22;10617;52.032;5.298;2023-04-03T06:06:25;2.90;99.90
20915;DHT22;10617;52.032;5.298;2023-04-03T06:10:26;2.90;99.90
20915;DHT22;10617;52.032;5.298;2023-04-03T06:14:28;3.00;99.90
20915;DHT22;10617;52.032;5.298;2023-04-03T06:18:30;3.10;99.90
20915;DHT22;10617;52.032;5.298;2023-04-03T06:22:31;3.20;99.90
20915;DHT22;10617;52.032;5.298;2023-04-03T06:26:33;3.30;99.90
20915;DHT22;10617;52.032;5.298;2023-04-03T06:30:36;3.40;99.90
20915;DHT22;10617;52.032;5.298;2023-04-03T06:34:38;3.50;99.90
20915;DHT22;10617;52.032;5.298;2023-04-03T06:38:39;3.60;99.90
20915;DHT22;10617;52.032;5.298;2023-04-03T06:42:41;3.70;99.90
20915;DHT22;10617;52.032;5.298;2023-04-03T06:46:43;3.80;99.90
20915;DHT22;10617;52.032;5.298;2023-04-03T06:50:45;3.90;99.90
20915;DHT22;10617;52.032;5.298;2023-04-03T06:54:47;4.00;99.90
20915;DHT22;10617;52.032;5.298;2023-04-03T06:58:49;4.10;99.90
20915;DHT22;10617;52.032;5.298;2023-04-03T07:02:52;4.20;99.90
20915;DHT22;10617;52.032;5.298;2023-04-03T07:06:54;4.30;99.90
20915;DHT22;10617;52.032;5.298;2023-04-03T07:10:55;4.50;99.90
20915;DHT22;10617;52.032;5.298;2023-04-03T07:14:58;4.60;99.90
20915;DHT22;10617;52.032;5.298;2023-04-03T07:19:00;4.70;99.90
20915;DHT22;10617;52.032;5.298;2023-04-03T07:23:01;4.80;99.90
20915;DHT22;10617;52.032;5.298;2023-04-03T07:27:04;4.90;99.90
20915;DHT22;10617;52.032;5.298;2023-04-03T07:31:07;5.10;99.90
20915;DHT22;10617;52.032;5.298;2023-04-03T07:35:12;5.20;99.90
20915;DHT22;10617;52.032;5.298;2023-04-03T07:39:14;5.30;99.90
20915;DHT22;10617;52.032;5.298;2023-04-03T07:43:16;5.50;99.90
20915;DHT22;10617;52.032;5.298;2023-04-03T07:47:18;5.70;99.90
20915;DHT22;10617;52.032;5.298;2023-04-03T07:51:21;5.90;99.90
20915;DHT22;10617;52.032;5.298;2023-04-03T07:55:23;6.10;99.90
20915;DHT22;10617;52.032;5.298;2023-04-03T07:59:25;6.30;99.90
20915;DHT22;10617;52.032;5.298;2023-04-03T08:03:26;6.30;99.90
20915;DHT22;10617;52.032;5.298;2023-04-03T08:07:28;6.40;99.90
20915;DHT22;10617;52.032;5.298;2023-04-03T08:11:29;6.60;99.90
20915;DHT22;10617;52.032;5.298;2023-04-03T08:15:32;6.70;99.90
20915;DHT22;10617;52.032;5.298;2023-04-03T08:19:34;6.80;99.90
20915;DHT22;10617;52.032;5.298;2023-04-03T08:23:35;7.00;99.90
20915;DHT22;10617;52.032;5.298;2023-04-03T08:27:37;7.20;99.90
20915;DHT22;10617;52.032;5.298;2023-04-03T08:31:39;7.50;99.90
20915;DHT22;10617;52.032;5.298;2023-04-03T08:35:41;7.60;99.90
20915;DHT22;10617;52.032;5.298;2023-04-03T08:39:43;7.70;99.90
20915;DHT22;10617;52.032;5.298;2023-04-03T08:49:00;8.00;99.90
20915;DHT22;10617;52.032;5.298;2023-04-03T08:52:37;8.10;99.90
20915;DHT22;10617;52.032;5.298;2023-04-03T08:56:39;8.30;99.90
20915;DHT22;10617;52.032;5.298;2023-04-03T09:00:50;8.50;99.90
20915;DHT22;10617;52.032;5.298;2023-04-03T09:04:52;8.60;99.90
20915;DHT22;10617;52.032;5.298;2023-04-03T09:13:44;8.80;99.90
20915;DHT22;10617;52.032;5.298;2023-04-03T09:21:47;9.00;99.90
20915;DHT22;10617;52.032;5.298;2023-04-03T09:25:49;9.10;99.70
20915;DHT22;10617;52.032;5.298;2023-04-03T09:29:53;9.20;99.90
20915;DHT22;10617;52.032;5.298;2023-04-03T09:38:29;9.40;99.90
20915;DHT22;10617;52.032;5.298;2023-04-03T09:42:31;9.50;98.80
20915;DHT22;10617;52.032;5.298;2023-04-03T09:46:33;9.70;99.60
20915;DHT22;10617;52.032;5.298;2023-04-03T09:50:36;9.80;98.20
20915;DHT22;10617;52.032;5.298;2023-04-03T09:54:38;9.90;95.50
20915;DHT22;10617;52.032;5.298;2023-04-03T09:58:45;9.90;99.30
20915;DHT22;10617;52.032;5.298;2023-04-03T10:02:52;10.00;96.10
20915;DHT22;10617;52.032;5.298;2023-04-03T10:06:55;10.10;94.40
20915;DHT22;10617;52.032;5.298;2023-04-03T10:11:13;10.30;93.80
20915;DHT22;10617;52.032;5.298;2023-04-03T10:15:16;10.50;92.10
20915;DHT22;10617;52.032;5.298;2023-04-03T10:19:24;11.00;94.20
20915;DHT22;10617;52.032;5.298;2023-04-03T10:23:33;11.50;93.70
20915;DHT22;10617;52.032;5.298;2023-04-03T10:31:46;12.10;96.70
20915;DHT22;10617;52.032;5.298;2023-04-03T10:40:24;12.60;89.70
20915;DHT22;10617;52.032;5.298;2023-04-03T10:48:56;12.90;93.80
20915;DHT22;10617;52.032;5.298;2023-04-03T10:57:30;13.30;93.50
20915;DHT22;10617;52.032;5.298;2023-04-03T11:01:33;13.50;92.60
20915;DHT22;10617;52.032;5.298;2023-04-03T11:05:39;13.60;97.40
20915;DHT22;10617;52.032;5.298;2023-04-03T11:09:43;13.50;92.40
20915;DHT22;10617;52.032;5.298;2023-04-03T11:13:49;13.80;95.60
20915;DHT22;10617;52.032;5.298;2023-04-03T11:18:35;14.10;91.00
20915;DHT22;10617;52.032;5.298;2023-04-03T11:22:20;14.50;89.50
20915;DHT22;10617;52.032;5.298;2023-04-03T11:26:24;14.90;91.10
20915;DHT22;10617;52.032;5.298;2023-04-03T11:38:38;15.90;99.90
20915;DHT22;10617;52.032;5.298;2023-04-03T11:42:45;16.10;99.90
20915;DHT22;10617;52.032;5.298;2023-04-03T11:46:54;16.30;99.90
20915;DHT22;10617;52.032;5.298;2023-04-03T11:50:58;16.40;99.90
20915;DHT22;10617;52.032;5.298;2023-04-03T11:55:00;16.10;91.90
20915;DHT22;10617;52.032;5.298;2023-04-03T11:59:14;16.20;97.70
20915;DHT22;10617;52.032;5.298;2023-04-03T12:04:05;16.50;99.90
20915;DHT22;10617;52.032;5.298;2023-04-03T12:07:41;16.90;99.90
20915;DHT22;10617;52.032;5.298;2023-04-03T12:11:44;17.20;95.20
20915;DHT22;10617;52.032;5.298;2023-04-03T12:15:50;17.30;99.90
20915;DHT22;10617;52.032;5.298;2023-04-03T12:19:52;17.20;99.90
20915;DHT22;10617;52.032;5.298;2023-04-03T12:28:11;17.20;93.40
20915;DHT22;10617;52.032;5.298;2023-04-03T12:36:37;17.70;99.90
20915;DHT22;10617;52.032;5.298;2023-04-03T12:44:56;17.40;97.30
20915;DHT22;10617;52.032;5.298;2023-04-03T12:49:02;16.50;92.70
20915;DHT22;10617;52.032;5.298;2023-04-03T12:53:04;15.70;93.20
20915;DHT22;10617;52.032;5.298;2023-04-03T12:57:16;15.40;97.10
20915;DHT22;10617;52.032;5.298;2023-04-03T13:01:19;15.20;90.70
20915;DHT22;10617;52.032;5.298;2023-04-03T13:05:22;14.80;85.30
20915;DHT22;10617;52.032;5.298;2023-04-03T13:09:25;14.50;89.40
20915;DHT22;10617;52.032;5.298;2023-04-03T13:13:29;14.40;80.30
20915;DHT22;10617;52.032;5.298;2023-04-03T13:17:31;14.30;76.40
20915;DHT22;10617;52.032;5.298;2023-04-03T13:21:33;14.40;82.10
20915;DHT22;10617;52.032;5.298;2023-04-03T13:25:40;14.40;82.80
20915;DHT22;10617;52.032;5.298;2023-04-03T13:29:42;14.30;77.30
20915;DHT22;10617;52.032;5.298;2023-04-03T13:33:57;14.30;81.00
20915;DHT22;10617;52.032;5.298;2023-04-03T13:38:01;14.40;86.00
20915;DHT22;10617;52.032;5.298;2023-04-03T13:46:37;14.40;72.30
20915;DHT22;10617;52.032;5.298;2023-04-03T13:51:02;14.20;72.60
20915;DHT22;10617;52.032;5.298;2023-04-03T13:55:03;14.30;83.60
20915;DHT22;10617;52.032;5.298;2023-04-03T14:03:32;14.60;77.90
20915;DHT22;10617;52.032;5.298;2023-04-03T14:07:34;14.80;79.90
20915;DHT22;10617;52.032;5.298;2023-04-03T14:11:35;15.60;85.00
20915;DHT22;10617;52.032;5.298;2023-04-03T14:15:37;16.70;90.40
20915;DHT22;10617;52.032;5.298;2023-04-03T14:19:39;17.80;92.70
20915;DHT22;10617;52.032;5.298;2023-04-03T14:23:41;18.00;91.50
20915;DHT22;10617;52.032;5.298;2023-04-03T14:27:44;17.90;92.00
20915;DHT22;10617;52.032;5.298;2023-04-03T14:31:47;18.20;86.30
20915;DHT22;10617;52.032;5.298;2023-04-03T14:35:49;18.70;98.60
20915;DHT22;10617;52.032;5.298;2023-04-03T14:39:51;19.00;88.00
20915;DHT22;10617;52.032;5.298;2023-04-03T14:43:54;19.40;96.50
20915;DHT22;10617;52.032;5.298;2023-04-03T14:47:56;19.70;99.90
20915;DHT22;10617;52.032;5.298;2023-04-03T14:51:58;19.70;87.30
20915;DHT22;10617;52.032;5.298;2023-04-03T14:56:00;19.90;99.90
20915;DHT22;10617;52.032;5.298;2023-04-03T15:00:03;20.30;96.80
20915;DHT22;10617;52.032;5.298;2023-04-03T15:04:15;20.70;99.90
20915;DHT22;10617;52.032;5.298;2023-04-03T15:12:19;21.10;96.60
20915;DHT22;10617;52.032;5.298;2023-04-03T15:16:20;21.10;95.60
20915;DHT22;10617;52.032;5.298;2023-04-03T15:20:23;20.80;82.60
20915;DHT22;10617;52.032;5.298;2023-04-03T15:24:25;20.50;84.60
20915;DHT22;10617;52.032;5.298;2023-04-03T15:28:31;20.40;81.30
20915;DHT22;10617;52.032;5.298;2023-04-03T15:32:34;20.60;94.30
20915;DHT22;10617;52.032;5.298;2023-04-03T15:36:36;21.00;93.50
20915;DHT22;10617;52.032;5.298;2023-04-03T15:40:38;21.50;91.80
20915;DHT22;10617;52.032;5.298;2023-04-03T15:44:40;22.10;90.40
20915;DHT22;10617;52.032;5.298;2023-04-03T15:48:41;22.30;93.70
20915;DHT22;10617;52.032;5.298;2023-04-03T15:52:43;22.50;85.20
20915;DHT22;10617;52.032;5.298;2023-04-03T15:56:45;22.60;99.30
20915;DHT22;10617;52.032;5.298;2023-04-03T16:00:47;22.70;95.30
20915;DHT22;10617;52.032;5.298;2023-04-03T16:04:49;23.00;91.40
20915;DHT22;10617;52.032;5.298;2023-04-03T16:08:50;23.10;92.30
20915;DHT22;10617;52.032;5.298;2023-04-03T16:12:52;23.00;93.00
20915;DHT22;10617;52.032;5.298;2023-04-03T16:16:54;23.10;87.30
20915;DHT22;10617;52.032;5.298;2023-04-03T16:20:56;23.10;98.20
20915;DHT22;10617;52.032;5.298;2023-04-03T16:24:58;23.00;93.70
20915;DHT22;10617;52.032;5.298;2023-04-03T16:28:59;22.80;86.90
20915;DHT22;10617;52.032;5.298;2023-04-03T16:33:01;22.40;91.80
20915;DHT22;10617;52.032;5.298;2023-04-03T16:37:03;21.90;67.80
20915;DHT22;10617;52.032;5.298;2023-04-03T16:41:05;21.50;77.10
20915;DHT22;10617;52.032;5.298;2023-04-03T16:45:07;21.40;79.50
20915;DHT22;10617;52.032;5.298;2023-04-03T16:49:09;21.60;93.00
20915;DHT22;10617;52.032;5.298;2023-04-03T16:53:10;22.00;90.70
20915;DHT22;10617;52.032;5.298;2023-04-03T16:57:12;21.80;75.00
20915;DHT22;10617;52.032;5.298;2023-04-03T17:01:15;21.60;60.60
20915;DHT22;10617;52.032;5.298;2023-04-03T17:05:16;21.40;77.90
20915;DHT22;10617;52.032;5.298;2023-04-03T17:09:18;21.30;79.10
20915;DHT22;10617;52.032;5.298;2023-04-03T17:13:21;21.30;83.00
20915;DHT22;10617;52.032;5.298;2023-04-03T17:17:23;21.40;85.40
20915;DHT22;10617;52.032;5.298;2023-04-03T17:21:26;21.00;79.20
20915;DHT22;10617;52.032;5.298;2023-04-03T17:25:27;20.60;78.50
20915;DHT22;10617;52.032;5.298;2023-04-03T17:29:29;20.30;76.40
20915;DHT22;10617;52.032;5.298;2023-04-03T17:33:31;19.80;69.50
20915;DHT22;10617;52.032;5.298;2023-04-03T17:37:33;19.20;60.90
20915;DHT22;10617;52.032;5.298;2023-04-03T17:41:34;19.10;77.60
20915;DHT22;10617;52.032;5.298;2023-04-03T17:45:36;18.80;71.30
20915;DHT22;10617;52.032;5.298;2023-04-03T17:49:39;18.30;74.40
20915;DHT22;10617;52.032;5.298;2023-04-03T17:53:41;17.80;69.60
20915;DHT22;10617;52.032;5.298;2023-04-03T17:57:43;16.80;72.00
20915;DHT22;10617;52.032;5.298;2023-04-03T18:01:44;16.00;70.80
20915;DHT22;10617;52.032;5.298;2023-04-03T18:05:47;15.20;64.60
20915;DHT22;10617;52.032;5.298;2023-04-03T18:09:51;14.50;67.80
20915;DHT22;10617;52.032;5.298;2023-04-03T18:13:53;14.00;67.30
20915;DHT22;10617;52.032;5.298;2023-04-03T18:17:55;13.50;65.90
20915;DHT22;10617;52.032;5.298;2023-04-03T18:21:59;13.10;67.80
20915;DHT22;10617;52.032;5.298;2023-04-03T18:26:01;12.80;66.90
20915;DHT22;10617;52.032;5.298;2023-04-03T18:30:08;12.50;66.00
20915;DHT22;10617;52.032;5.298;2023-04-03T18:34:12;12.30;65.90
20915;DHT22;10617;52.032;5.298;2023-04-03T18:38:15;12.10;65.00
20915;DHT22;10617;52.032;5.298;2023-04-03T18:42:17;11.90;64.90
20915;DHT22;10617;52.032;5.298;2023-04-03T18:46:19;11.80;64.00
20915;DHT22;10617;52.032;5.298;2023-04-03T18:50:21;11.60;63.50
20915;DHT22;10617;52.032;5.298;2023-04-03T18:54:23;11.50;63.50
20915;DHT22;10617;52.032;5.298;2023-04-03T18:58:24;11.40;64.10
20915;DHT22;10617;52.032;5.298;2023-04-03T19:02:26;11.30;63.50
20915;DHT22;10617;52.032;5.298;2023-04-03T19:06:28;11.20;64.10
20915;DHT22;10617;52.032;5.298;2023-04-03T19:10:30;11.10;63.70
20915;DHT22;10617;52.032;5.298;2023-04-03T19:14:31;11.00;63.50
20915;DHT22;10617;52.032;5.298;2023-04-03T19:18:33;10.90;63.50
20915;DHT22;10617;52.032;5.298;2023-04-03T19:22:35;10.90;63.60
20915;DHT22;10617;52.032;5.298;2023-04-03T19:26:37;10.90;63.40
20915;DHT22;10617;52.032;5.298;2023-04-03T19:30:39;10.80;63.30
20915;DHT22;10617;52.032;5.298;2023-04-03T19:34:40;10.90;63.40
20915;DHT22;10617;52.032;5.298;2023-04-03T19:38:42;10.90;63.50
20915;DHT22;10617;52.032;5.298;2023-04-03T19:42:44;10.70;63.70
20915;DHT22;10617;52.032;5.298;2023-04-03T19:46:46;10.50;63.50
20915;DHT22;10617;52.032;5.298;2023-04-03T19:50:51;10.40;64.30
20915;DHT22;10617;52.032;5.298;2023-04-03T19:54:53;10.20;63.70
20915;DHT22;10617;52.032;5.298;2023-04-03T19:58:55;10.10;64.20
20915;DHT22;10617;52.032;5.298;2023-04-03T20:02:57;10.00;64.00
20915;DHT22;10617;52.032;5.298;2023-04-03T20:06:59;9.80;64.80
20915;DHT22;10617;52.032;5.298;2023-04-03T20:11:00;9.60;65.40
20915;DHT22;10617;52.032;5.298;2023-04-03T20:15:02;9.40;65.60
20915;DHT22;10617;52.032;5.298;2023-04-03T20:19:07;9.20;65.60
20915;DHT22;10617;52.032;5.298;2023-04-03T20:23:10;9.10;65.20
20915;DHT22;10617;52.032;5.298;2023-04-03T20:27:12;9.00;65.20
20915;DHT22;10617;52.032;5.298;2023-04-03T20:31:14;8.80;65.80
20915;DHT22;10617;52.032;5.298;2023-04-03T20:35:16;8.70;65.50
20915;DHT22;10617;52.032;5.298;2023-04-03T20:39:22;8.50;65.70
20915;DHT22;10617;52.032;5.298;2023-04-03T20:43:25;8.40;67.00
20915;DHT22;10617;52.032;5.298;2023-04-03T20:47:26;8.20;65.60
20915;DHT22;10617;52.032;5.298;2023-04-03T20:51:28;8.10;65.90
20915;DHT22;10617;52.032;5.298;2023-04-03T20:55:30;7.90;69.90
20915;DHT22;10617;52.032;5.298;2023-04-03T20:59:31;7.70;66.70
20915;DHT22;10617;52.032;5.298;2023-04-03T21:03:34;7.50;67.20
20915;DHT22;10617;52.032;5.298;2023-04-03T21:20:20;7.30;65.00
20915;DHT22;10617;52.032;5.298;2023-04-03T21:24:22;7.10;70.70
20915;DHT22;10617;52.032;5.298;2023-04-03T21:28:24;6.90;70.00
20915;DHT22;10617;52.032;5.298;2023-04-03T21:32:26;6.80;69.80
20915;DHT22;10617;52.032;5.298;2023-04-03T21:36:37;6.70;70.90
20915;DHT22;10617;52.032;5.298;2023-04-03T21:51:18;6.40;68.60
20915;DHT22;10617;52.032;5.298;2023-04-03T21:55:20;6.20;67.90
20915;DHT22;10617;52.032;5.298;2023-04-03T21:59:22;6.20;65.90
20915;DHT22;10617;52.032;5.298;2023-04-03T22:03:23;6.10;67.70
20915;DHT22;10617;52.032;5.298;2023-04-03T22:07:26;6.00;68.30
20915;DHT22;10617;52.032;5.298;2023-04-03T22:11:27;5.90;67.20
20915;DHT22;10617;52.032;5.298;2023-04-03T22:15:29;5.80;66.30
20915;DHT22;10617;52.032;5.298;2023-04-03T22:19:31;5.70;67.30
20915;DHT22;10617;52.032;5.298;2023-04-03T22:23:33;5.60;64.40
20915;DHT22;10617;52.032;5.298;2023-04-03T22:27:35;5.40;66.60
20915;DHT22;10617;52.032;5.298;2023-04-03T22:31:36;5.30;67.60
20915;DHT22;10617;52.032;5.298;2023-04-03T22:35:44;5.20;66.60
20915;DHT22;10617;52.032;5.298;2023-04-03T22:39:46;5.10;67.30
20915;DHT22;10617;52.032;5.298;2023-04-03T22:43:48;5.10;64.70
20915;DHT22;10617;52.032;5.298;2023-04-03T22:47:49;5.10;63.90
20915;DHT22;10617;52.032;5.298;2023-04-03T22:51:51;5.00;65.80
20915;DHT22;10617;52.032;5.298;2023-04-03T23:01:03;4.90;65.70
20915;DHT22;10617;52.032;5.298;2023-04-03T23:05:08;4.70;65.20
20915;DHT22;10617;52.032;5.298;2023-04-03T23:09:09;4.50;63.50
20915;DHT22;10617;52.032;5.298;2023-04-03T23:13:11;4.40;64.40
20915;DHT22;10617;52.032;5.298;2023-04-03T23:17:13;4.20;65.50
20915;DHT22;10617;52.032;5.298;2023-04-03T23:21:14;4.10;66.10
20915;DHT22;10617;52.032;5.298;2023-04-03T23:25:17;4.00;65.20
20915;DHT22;10617;52.032;5.298;2023-04-03T23:29:18;4.00;67.60
20915;DHT22;10617;52.032;5.298;2023-04-03T23:33:20;4.00;68.50
20915;DHT22;10617;52.032;5.298;2023-04-03T23:37:22;4.00;66.90
20915;DHT22;10617;52.032;5.298;2023-04-03T23:41:23;4.00;70.00
20915;DHT22;10617;52.032;5.298;2023-04-03T23:45:25;3.90;67.20
20915;DHT22;10617;52.032;5.298;2023-04-03T23:49:27;3.90;68.80
20915;DHT22;10617;52.032;5.298;2023-04-03T23:53:29;3.90;69.60
20915;DHT22;10617;52.032;5.298;2023-04-03T23:57:31;3.80;66.50
